Time;durP1;ratioP1;P1;durP2;ratioP2;P2;SDS_P1;SDS_P2;PMS_P1;PMS_P2;Temp;Humidity;BMP_temperature;BMP_pressure;BME280_temperature;BME280_humidity;BME280_pressure;Samples;Min_cycle;Max_cycle;Signal;HPM_P1;HPM_P2
2024/01/04 00:02:16;;;;;;;53.90;21.83;;;;;;;4.61;97.73;99061.53;5031325;28;20028;-39
2024/01/04 00:04:41;;;;;;;56.20;22.42;;;;;;;4.58;100.00;99062.69;5031229;28;20028;-39
2024/01/04 00:07:06;;;;;;;65.05;22.30;;;;;;;4.23;99.29;99083.44;5030902;28;20030;-39
2024/01/04 00:09:32;;;;;;;76.10;22.58;;;;;;;4.21;100.00;99066.19;5029909;28;20017;-39
2024/01/04 00:11:57;;;;;;;52.83;22.67;;;;;;;4.36;98.80;99063.56;5030323;28;20033;-39
2024/01/04 00:14:23;;;;;;;59.33;22.33;;;;;;;4.33;100.00;99067.41;5030222;28;20018;-40
2024/01/04 00:16:48;;;;;;;49.70;21.58;;;;;;;4.24;99.25;99056.09;5030869;28;20341;-40
2024/01/04 00:19:13;;;;;;;100.70;25.40;;;;;;;4.58;98.82;99056.59;5030819;28;20029;-39
2024/01/04 00:21:39;;;;;;;54.17;22.63;;;;;;;4.59;98.82;99061.69;5031030;28;20445;-39
2024/01/04 00:24:04;;;;;;;47.45;22.08;;;;;;;4.43;98.99;99064.50;5030853;28;20033;-38
2024/01/04 00:26:30;;;;;;;70.28;23.05;;;;;;;4.34;98.61;99062.94;5030743;28;20036;-38
2024/01/04 00:28:55;;;;;;;70.35;23.55;;;;;;;4.29;99.15;99058.22;5030653;28;20095;-39
2024/01/04 00:31:20;;;;;;;59.67;23.73;;;;;;;4.37;99.65;99066.03;5030570;28;20021;-36
2024/01/04 00:33:46;;;;;;;60.60;22.77;;;;;;;4.37;99.38;99067.84;5030894;28;20100;-40
2024/01/04 00:36:11;;;;;;;55.20;22.88;;;;;;;4.03;96.98;99067.31;5030703;28;20021;-40
2024/01/04 00:38:37;;;;;;;99.05;23.98;;;;;;;3.81;100.00;99057.63;5030863;28;20052;-40
2024/01/04 00:41:02;;;;;;;67.50;23.38;;;;;;;4.03;100.00;99066.50;5030756;28;20116;-40
2024/01/04 00:43:28;;;;;;;65.10;21.98;;;;;;;4.02;98.47;99054.34;5030794;28;20029;-38
2024/01/04 00:45:53;;;;;;;57.50;22.67;;;;;;;3.95;100.00;99062.13;5030539;28;20662;-38
2024/01/04 00:48:18;;;;;;;54.33;22.00;;;;;;;3.75;100.00;99072.34;5030369;28;20033;-38
2024/01/04 00:50:44;;;;;;;70.40;21.80;;;;;;;3.82;100.00;99067.16;5030497;28;20053;-40
2024/01/04 00:53:09;;;;;;;52.90;23.05;;;;;;;3.81;100.00;99081.31;5030498;28;20037;-39
2024/01/04 00:55:35;;;;;;;73.65;23.17;;;;;;;4.07;100.00;99070.41;5030483;28;20036;-40
2024/01/04 00:58:03;;;;;;;66.47;22.38;;;;;;;4.19;97.29;99049.72;5030196;28;20036;-40
2024/01/04 01:00:29;;;;;;;54.40;21.05;;;;;;;4.06;98.17;99068.78;5030551;28;20045;-38
2024/01/04 01:02:54;;;;;;;49.60;22.27;;;;;;;4.04;97.80;99070.78;5030395;28;20053;-40
2024/01/04 01:05:20;;;;;;;59.55;20.38;;;;;;;4.19;96.89;99063.75;5030320;28;20021;-40
2024/01/04 01:07:45;;;;;;;45.97;20.77;;;;;;;4.10;97.76;99077.97;5030279;28;20063;-40
2024/01/04 01:10:11;;;;;;;42.33;19.92;;;;;;;3.56;98.05;99078.88;5031107;28;20021;-39
2024/01/04 01:12:36;;;;;;;41.35;20.02;;;;;;;3.85;99.41;99087.88;5030871;28;20417;-40
2024/01/04 01:15:01;;;;;;;47.95;20.33;;;;;;;3.72;99.19;99080.56;5029170;28;20025;-39
2024/01/04 01:17:27;;;;;;;50.83;20.88;;;;;;;3.61;99.02;99073.06;5031467;28;20022;-33
2024/01/04 01:19:52;;;;;;;44.25;21.73;;;;;;;3.75;99.92;99079.38;5034674;28;20089;-33
2024/01/04 01:22:17;;;;;;;49.75;21.75;;;;;;;3.92;99.26;99067.72;5035222;28;20489;-32
2024/01/04 01:24:43;;;;;;;43.63;21.23;;;;;;;3.92;98.62;99059.84;5034781;28;20178;-33
2024/01/04 01:27:08;;;;;;;44.58;21.45;;;;;;;3.82;98.90;99059.28;5034652;28;20260;-40
2024/01/04 01:29:33;;;;;;;45.42;21.75;;;;;;;4.07;99.46;99067.78;5034751;28;20040;-40
2024/01/04 01:31:59;;;;;;;46.20;21.45;;;;;;;3.96;97.85;99058.50;5034887;28;20469;-40
2024/01/04 01:34:24;;;;;;;44.08;21.33;;;;;;;3.96;99.90;99052.41;5035411;28;20127;-40
2024/01/04 01:36:50;;;;;;;52.53;23.75;;;;;;;3.99;99.44;99054.69;5034673;28;20021;-40
2024/01/04 01:39:15;;;;;;;46.55;23.52;;;;;;;3.96;99.62;99057.66;5034435;28;20024;-41
2024/01/04 01:41:40;;;;;;;47.22;23.10;;;;;;;3.94;99.91;99057.03;5035029;28;20029;-40
2024/01/04 01:44:06;;;;;;;56.40;25.75;;;;;;;3.99;99.63;99057.34;5034448;28;20025;-40
2024/01/04 01:46:31;;;;;;;63.45;25.70;;;;;;;3.84;99.66;99065.19;5034589;28;20022;-38
2024/01/04 01:48:57;;;;;;;62.35;25.65;;;;;;;3.85;100.00;99080.81;5034510;28;20083;-39
2024/01/04 01:51:22;;;;;;;67.63;26.35;;;;;;;4.04;100.00;99073.44;5034214;28;20049;-41
2024/01/04 01:53:48;;;;;;;59.92;25.40;;;;;;;4.10;99.98;99085.88;5034568;28;20044;-39
2024/01/04 01:56:13;;;;;;;101.90;28.55;;;;;;;3.86;99.76;99068.44;5034443;28;20112;-39
2024/01/04 01:58:40;;;;;;;73.00;26.90;;;;;;;4.02;100.00;99064.88;5033999;28;20108;-41
2024/01/04 02:01:05;;;;;;;68.43;28.25;;;;;;;3.87;100.00;99051.69;5034201;28;20468;-40
2024/01/04 02:03:31;;;;;;;86.88;29.50;;;;;;;3.82;100.00;99059.28;5034299;28;20104;-41
2024/01/04 02:05:56;;;;;;;72.22;28.52;;;;;;;3.57;100.00;99053.38;5034073;28;20025;-39
2024/01/04 02:08:21;;;;;;;69.10;30.00;;;;;;;3.76;100.00;99049.47;5034035;28;20053;-39
2024/01/04 02:10:47;;;;;;;76.30;29.08;;;;;;;3.84;100.00;99050.19;5034096;28;20444;-39
2024/01/04 02:13:12;;;;;;;77.15;29.35;;;;;;;3.90;100.00;99049.50;5033783;28;20102;-38
2024/01/04 02:15:38;;;;;;;69.10;29.60;;;;;;;3.88;100.00;99043.59;5033967;28;20021;-40
2024/01/04 02:18:04;;;;;;;82.65;31.20;;;;;;;3.72;99.69;99030.56;5034114;28;20028;-40
2024/01/04 02:20:29;;;;;;;80.88;30.67;;;;;;;3.48;100.00;99035.03;5033723;28;20389;-39
2024/01/04 02:22:55;;;;;;;79.03;30.48;;;;;;;3.32;99.93;99040.38;5043709;28;20083;-39
2024/01/04 02:25:20;;;;;;;95.35;30.08;;;;;;;3.78;100.00;99044.84;5050130;28;20037;-39
2024/01/04 02:27:45;;;;;;;71.40;28.95;;;;;;;3.65;100.00;99034.88;5029250;28;20022;-39
2024/01/04 02:30:14;;;;;;;69.97;28.27;;;;;;;3.48;100.00;99042.06;5032245;28;20025;-39
2024/01/04 02:32:39;;;;;;;65.82;29.10;;;;;;;3.71;100.00;99055.22;5033558;28;20041;-40
2024/01/04 02:35:05;;;;;;;67.57;30.67;;;;;;;3.60;99.70;99055.63;5033456;28;20021;-40
2024/01/04 02:37:31;;;;;;;62.63;28.10;;;;;;;3.55;99.38;99066.69;5021609;28;20018;-37
2024/01/04 02:39:56;;;;;;;59.67;27.88;;;;;;;3.51;99.95;99074.13;5013793;28;20022;-40
2024/01/04 02:42:21;;;;;;;63.47;28.35;;;;;;;3.29;98.44;99073.13;5013770;28;20469;-39
2024/01/04 02:44:47;;;;;;;60.33;27.17;;;;;;;3.47;100.00;99091.25;5013711;28;20466;-39
2024/01/04 02:47:12;;;;;;;58.13;25.65;;;;;;;3.49;100.00;99091.09;5013856;28;20025;-39
2024/01/04 02:49:38;;;;;;;55.92;26.05;;;;;;;3.30;99.81;99090.50;5013256;28;20026;-39
2024/01/04 02:52:04;;;;;;;55.45;27.02;;;;;;;3.35;98.84;99087.38;5012145;28;20111;-39
2024/01/04 02:54:29;;;;;;;53.58;26.75;;;;;;;3.47;100.00;99096.50;5013515;28;20084;-38
2024/01/04 02:56:55;;;;;;;56.10;25.08;;;;;;;3.29;97.49;99094.16;5029945;28;20044;-37
2024/01/04 02:59:20;;;;;;;49.85;24.77;;;;;;;3.24;99.83;99091.22;5033043;28;20037;-40
2024/01/04 03:01:48;;;;;;;47.90;24.75;;;;;;;3.08;97.27;99089.44;5033398;28;20432;-39
2024/01/04 03:04:14;;;;;;;47.22;23.52;;;;;;;2.89;99.28;99085.44;5032984;28;20109;-36
2024/01/04 03:06:39;;;;;;;49.72;24.00;;;;;;;2.97;99.59;99095.13;5032787;28;20112;-36
2024/01/04 03:09:04;;;;;;;46.80;24.45;;;;;;;2.92;98.66;99098.22;5032483;28;20521;-39
2024/01/04 03:11:30;;;;;;;49.67;24.17;;;;;;;3.02;99.44;99095.41;5032905;28;20025;-39
2024/01/04 03:13:55;;;;;;;46.42;23.80;;;;;;;2.83;98.27;99099.25;5032679;28;20099;-39
2024/01/04 03:16:22;;;;;;;46.67;22.55;;;;;;;2.92;99.47;99092.16;5032801;28;20022;-39
2024/01/04 03:18:47;;;;;;;43.53;22.60;;;;;;;2.80;100.00;99091.72;5032678;28;20080;-39
2024/01/04 03:21:13;;;;;;;38.30;20.75;;;;;;;2.84;99.97;99076.44;5032407;28;20068;-38
2024/01/04 03:23:38;;;;;;;42.58;21.02;;;;;;;2.50;98.36;99056.50;5032726;28;20076;-39
2024/01/04 03:26:04;;;;;;;33.40;20.25;;;;;;;2.72;99.45;99050.53;5032155;28;20060;-39
2024/01/04 03:28:30;;;;;;;41.42;20.95;;;;;;;2.85;99.04;99064.91;5032524;28;20091;-38
2024/01/04 03:30:55;;;;;;;39.00;20.38;;;;;;;2.89;99.57;99056.53;5032308;28;20536;-36
2024/01/04 03:33:21;;;;;;;40.42;20.83;;;;;;;2.71;99.67;99054.13;5032043;28;20022;-39
2024/01/04 03:35:46;;;;;;;39.45;20.42;;;;;;;2.84;99.09;99052.78;5032530;28;20079;-39
2024/01/04 03:38:11;;;;;;;40.58;20.35;;;;;;;2.60;98.63;99051.06;5032477;28;20112;-39
2024/01/04 03:40:37;;;;;;;40.75;21.52;;;;;;;2.92;99.84;99071.13;5032069;28;20053;-39
2024/01/04 03:43:04;;;;;;;36.03;20.63;;;;;;;2.86;98.83;99074.47;5032169;28;20025;-37
2024/01/04 03:45:30;;;;;;;40.35;20.83;;;;;;;2.91;99.32;99061.59;5032630;28;20037;-38
2024/01/04 03:47:56;;;;;;;39.55;21.27;;;;;;;3.07;97.45;99060.72;5018873;28;20028;-40
2024/01/04 03:50:21;;;;;;;37.38;20.42;;;;;;;2.98;95.46;99073.09;5032083;28;20401;-40
2024/01/04 03:52:46;;;;;;;37.17;20.55;;;;;;;2.90;98.21;99073.13;5031886;28;20079;-39
2024/01/04 03:55:15;;;;;;;35.15;19.67;;;;;;;2.85;96.99;99060.47;5031885;28;20040;-39
2024/01/04 03:57:42;;;;;;;36.33;19.55;;;;;;;2.70;97.74;99056.91;5030079;28;20030;-40
2024/01/04 04:00:08;;;;;;;38.40;20.40;;;;;;;2.68;99.55;99057.09;5019406;28;20018;-40
2024/01/04 04:02:33;;;;;;;37.38;19.92;;;;;;;2.79;99.42;99058.53;5028965;28;20036;-39
2024/01/04 04:04:59;;;;;;;35.67;20.27;;;;;;;2.73;96.31;99051.34;5029831;28;20033;-39
2024/01/04 04:07:24;;;;;;;40.17;20.40;;;;;;;2.61;95.49;99047.41;5012242;28;20072;-36
2024/01/04 04:09:49;;;;;;;41.22;21.10;;;;;;;2.59;95.56;99055.50;5012022;28;20033;-39
2024/01/04 04:12:15;;;;;;;38.72;20.13;;;;;;;2.51;95.75;99052.88;5011982;28;20485;-40
2024/01/04 04:14:41;;;;;;;39.05;21.10;;;;;;;2.29;96.26;99036.03;5012090;28;20032;-39
2024/01/04 04:17:06;;;;;;;41.13;20.77;;;;;;;2.20;97.00;99031.78;5011762;28;20383;-38
2024/01/04 04:19:32;;;;;;;37.40;20.45;;;;;;;2.27;96.48;99027.50;5014132;28;20030;-40
2024/01/04 04:21:57;;;;;;;38.67;21.10;;;;;;;2.31;97.43;99034.88;5029680;28;20041;-37
2024/01/04 04:24:24;;;;;;;35.75;19.52;;;;;;;2.32;97.33;99028.63;5014483;28;20022;-39
2024/01/04 04:26:49;;;;;;;33.92;19.40;;;;;;;2.23;97.78;99018.28;5024852;28;20489;-39
2024/01/04 04:29:14;;;;;;;42.15;20.98;;;;;;;2.38;99.04;99026.31;5044610;28;20029;-41
2024/01/04 04:31:40;;;;;;;37.75;20.73;;;;;;;2.49;97.83;99018.06;5050958;28;20038;-37
2024/01/04 04:34:05;;;;;;;37.75;20.83;;;;;;;2.42;98.68;99009.22;5051036;28;20029;-39
2024/01/04 04:36:31;;;;;;;36.88;20.70;;;;;;;2.33;98.07;99008.44;5051427;28;20028;-38
2024/01/04 04:39:00;;;;;;;41.00;20.63;;;;;;;2.57;97.80;98997.06;5051188;28;20457;-39
2024/01/04 04:41:26;;;;;;;40.05;20.70;;;;;;;2.50;97.06;99011.84;5051403;28;20029;-38
2024/01/04 04:43:51;;;;;;;42.10;21.83;;;;;;;2.46;98.81;99007.91;5032968;28;20116;-39
2024/01/04 04:46:18;;;;;;;37.13;21.13;;;;;;;2.55;96.72;99004.25;5022777;28;20032;-39
2024/01/04 04:48:44;;;;;;;39.42;21.60;;;;;;;2.57;95.89;99007.56;5027980;28;20397;-36
2024/01/04 04:51:10;;;;;;;42.17;21.75;;;;;;;2.30;97.36;99020.13;5021490;28;20521;-37
2024/01/04 04:53:36;;;;;;;42.72;21.25;;;;;;;2.35;99.07;99009.91;5026086;28;20044;-38
2024/01/04 04:56:02;;;;;;;40.80;21.45;;;;;;;2.34;97.38;99023.19;5031427;28;20033;-39
2024/01/04 04:58:29;;;;;;;43.25;22.52;;;;;;;2.26;97.79;99041.59;5031060;28;20025;-39
2024/01/04 05:00:55;;;;;;;40.08;21.35;;;;;;;2.14;97.23;99034.06;5030506;28;20104;-38
2024/01/04 05:03:21;;;;;;;38.28;19.83;;;;;;;2.31;97.04;99044.56;5030386;28;20104;-39
2024/01/04 05:05:46;;;;;;;40.67;20.73;;;;;;;2.34;98.16;99049.47;5030589;28;20032;-41
2024/01/04 05:08:11;;;;;;;38.90;20.65;;;;;;;2.17;98.69;99051.31;5030456;28;20017;-38
2024/01/04 05:10:37;;;;;;;37.88;21.02;;;;;;;2.21;98.44;99043.91;5042007;28;20032;-40
2024/01/04 05:13:02;;;;;;;42.78;21.17;;;;;;;2.27;98.76;99059.00;5050577;28;20605;-40
2024/01/04 05:15:28;;;;;;;37.25;21.30;;;;;;;2.35;97.89;99059.78;5050626;28;20021;-38
2024/01/04 05:17:54;;;;;;;39.22;20.77;;;;;;;2.42;96.57;99051.25;5051065;28;20055;-40
2024/01/04 05:20:19;;;;;;;45.20;22.90;;;;;;;2.48;96.76;99053.22;5051170;28;20381;-39
2024/01/04 05:22:45;;;;;;;68.13;28.80;;;;;;;2.28;97.91;99053.56;5050891;28;20070;-39
2024/01/04 05:25:12;;;;;;;61.80;27.83;;;;;;;2.41;99.49;99047.00;5050669;28;20104;-39
2024/01/04 05:27:38;;;;;;;46.17;24.83;;;;;;;3.12;98.66;99043.44;5032337;28;20033;-41
2024/01/04 05:30:08;;;;;;;47.70;25.02;;;;;;;3.70;94.58;99048.34;5011319;28;20410;-37
2024/01/04 05:32:34;;;;;;;42.10;23.17;;;;;;;4.28;91.32;99052.13;5011323;28;20045;-40
2024/01/04 05:34:59;;;;;;;43.75;22.60;;;;;;;4.48;89.33;99056.88;5010979;28;20058;-41
2024/01/04 05:37:25;;;;;;;44.42;24.30;;;;;;;4.49;88.75;99058.50;5011342;28;20103;-41
2024/01/04 05:39:50;;;;;;;39.30;22.88;;;;;;;4.84;96.52;99071.97;5011718;28;20088;-40
2024/01/04 05:42:16;;;;;;;42.20;22.10;;;;;;;5.20;90.89;99073.84;5011102;28;20026;-40
2024/01/04 05:44:41;;;;;;;37.78;21.17;;;;;;;4.19;90.06;99057.63;5011117;28;20022;-41
2024/01/04 05:47:07;;;;;;;37.97;22.65;;;;;;;4.00;92.10;99057.16;5010755;28;20467;-40
2024/01/04 05:49:32;;;;;;;39.83;22.73;;;;;;;4.40;91.14;99049.88;5010358;28;20053;-41
2024/01/04 05:51:58;;;;;;;42.55;23.92;;;;;;;3.89;90.69;99047.06;5008996;28;20062;-41
2024/01/04 05:54:23;;;;;;;37.05;21.05;;;;;;;3.48;92.67;99063.13;5008683;28;20036;-40
2024/01/04 05:56:49;;;;;;;49.78;26.27;;;;;;;3.47;94.03;99066.75;5008275;28;20037;-41
2024/01/04 05:59:14;;;;;;;46.08;25.58;;;;;;;4.27;90.80;99054.94;5008158;28;20393;-40
2024/01/04 06:01:40;;;;;;;48.00;26.83;;;;;;;3.66;92.56;99068.13;5008950;28;20038;-40
2024/01/04 06:04:05;;;;;;;49.72;26.10;;;;;;;3.53;93.00;99072.13;5030459;28;20025;-42
2024/01/04 06:06:31;;;;;;;43.85;24.42;;;;;;;3.26;94.16;99067.38;5033517;28;20508;-39
2024/01/04 06:08:56;;;;;;;46.40;25.58;;;;;;;3.64;94.01;99078.00;5032909;28;20100;-38
2024/01/04 06:11:22;;;;;;;46.28;25.85;;;;;;;4.55;90.93;99070.13;5033852;28;20091;-40
2024/01/04 06:13:47;;;;;;;41.00;23.40;;;;;;;5.28;87.76;99079.81;5033854;28;20033;-39
2024/01/04 06:16:12;;;;;;;38.47;22.65;;;;;;;5.75;85.40;99082.97;5033700;28;20478;-41
2024/01/04 06:18:38;;;;;;;40.05;22.85;;;;;;;6.34;83.66;99083.69;5032944;28;20037;-40
2024/01/04 06:21:05;;;;;;;39.42;22.85;;;;;;;6.53;81.17;99068.97;5033057;28;20033;-40
2024/01/04 06:23:31;;;;;;;36.25;21.80;;;;;;;6.89;79.65;99087.28;5032903;28;20030;-40
2024/01/04 06:25:56;;;;;;;35.97;21.17;;;;;;;7.43;78.22;99086.50;5032746;28;20046;-40
2024/01/04 06:28:22;;;;;;;35.17;21.02;;;;;;;7.82;75.86;99087.63;5032507;28;20037;-41
2024/01/04 06:30:48;;;;;;;34.30;20.00;;;;;;;8.21;74.09;99079.91;5033664;28;20022;-41
2024/01/04 06:33:14;;;;;;;35.53;20.30;;;;;;;8.54;71.86;99079.09;5034664;28;20033;-41
2024/01/04 06:35:40;;;;;;;33.38;20.48;;;;;;;8.25;69.41;99083.78;5053343;28;20115;-40
2024/01/04 06:38:08;;;;;;;35.67;21.17;;;;;;;7.73;71.90;99086.19;5053334;28;20103;-39
2024/01/04 06:40:38;;;;;;;34.63;20.50;;;;;;;7.63;72.32;99083.09;5053423;28;20029;-41
2024/01/04 06:43:08;;;;;;;33.72;20.17;;;;;;;7.53;73.80;99070.25;5053030;28;20032;-40
2024/01/04 06:45:33;;;;;;;29.20;19.20;;;;;;;7.98;72.33;99059.94;5053073;28;20484;-37
2024/01/04 06:47:59;;;;;;;31.08;19.30;;;;;;;8.40;72.32;99054.41;5052971;28;20025;-40
2024/01/04 06:50:24;;;;;;;31.77;19.80;;;;;;;8.68;72.46;99050.69;5052980;28;20129;-42
2024/01/04 06:52:50;;;;;;;30.88;19.20;;;;;;;9.28;70.94;99047.84;5053320;28;20032;-42
2024/01/04 07:07:21;;;;;;;33.42;22.30;;;;;;;7.16;80.27;99061.78;5068342;28;20386;-34
2024/01/04 07:09:46;;;;;;;36.00;22.70;;;;;;;7.21;81.33;99061.19;5067215;28;20040;-34
2024/01/04 07:12:11;;;;;;;29.55;19.13;;;;;;;7.05;82.00;99052.56;5067924;28;20416;-35
2024/01/04 07:14:39;;;;;;;28.15;18.25;;;;;;;7.20;81.45;99062.22;5067467;28;20100;-34
2024/01/04 07:17:07;;;;;;;28.33;18.88;;;;;;;7.30;81.75;99072.44;5066844;28;20094;-35
2024/01/04 07:19:32;;;;;;;28.85;18.70;;;;;;;7.73;79.15;99066.81;5067777;28;20464;-34
2024/01/04 07:21:57;;;;;;;29.67;19.48;;;;;;;8.11;77.33;99055.63;5067667;28;20103;-34
2024/01/04 07:24:23;;;;;;;31.40;18.92;;;;;;;8.43;75.92;99061.97;5067627;28;20471;-35
2024/01/04 07:26:48;;;;;;;30.65;18.83;;;;;;;8.09;76.56;99057.69;5066884;28;20017;-34
2024/01/04 07:29:14;;;;;;;32.20;19.75;;;;;;;8.25;76.10;99049.31;5067635;28;20021;-35
2024/01/04 07:31:39;;;;;;;30.85;19.17;;;;;;;7.90;78.09;99046.88;5067159;28;20020;-33
2024/01/04 07:34:04;;;;;;;32.03;20.50;;;;;;;8.11;77.58;99037.91;5067237;28;20028;-35
2024/01/04 07:36:30;;;;;;;31.33;19.98;;;;;;;8.14;77.82;99037.50;5067044;28;20082;-33
2024/01/04 07:38:55;;;;;;;31.67;21.08;;;;;;;8.31;77.79;99031.78;5067082;28;20504;-34
2024/01/04 07:41:20;;;;;;;31.13;20.70;;;;;;;8.41;77.46;99026.84;5067353;28;20049;-34
2024/01/04 07:43:47;;;;;;;30.27;19.80;;;;;;;8.77;76.64;99028.25;5066933;28;20032;-35
2024/01/04 07:46:12;;;;;;;32.67;19.83;;;;;;;9.38;73.91;99033.06;5067216;28;20555;-39
2024/01/04 07:48:38;;;;;;;26.98;17.63;;;;;;;9.33;74.55;99038.22;5067114;28;20096;-41
2024/01/04 07:51:04;;;;;;;33.33;21.35;;;;;;;9.64;74.73;99036.59;5067119;28;20051;-41
2024/01/04 07:53:29;;;;;;;40.60;25.13;;;;;;;9.92;73.22;99035.41;5066890;28;20032;-41
2024/01/04 07:55:54;;;;;;;36.35;23.38;;;;;;;10.33;70.89;99026.88;5058784;28;20032;-41
2024/01/04 08:11:02;;;;;;;31.63;21.13;;;;;;;10.69;68.96;99003.19;5129186;27;20382;-27
2024/01/04 08:13:28;;;;;;;41.40;24.30;;;;;;;10.82;68.20;98997.72;5128930;27;20036;-27
2024/01/04 08:15:53;;;;;;;45.40;28.65;;;;;;;10.30;68.39;98987.44;5128854;27;20030;-28
2024/01/04 08:18:22;;;;;;;51.35;29.35;;;;;;;10.54;68.91;99006.22;5129150;28;20019;-27
2024/01/04 08:20:48;;;;;;;47.53;29.77;;;;;;;11.53;66.03;99033.44;5129013;27;20024;-27
2024/01/04 08:23:13;;;;;;;47.10;29.98;;;;;;;10.76;66.98;99018.06;5128600;27;20461;-27
2024/01/04 08:25:39;;;;;;;44.53;25.75;;;;;;;10.95;66.21;99016.19;5128636;27;20027;-27
2024/01/04 08:28:05;;;;;;;44.42;26.20;;;;;;;10.55;68.36;99015.84;5128583;27;20109;-26
2024/01/04 08:30:31;;;;;;;44.20;25.35;;;;;;;10.47;68.77;99011.63;5128514;27;20049;-27
2024/01/04 08:32:56;;;;;;;36.63;21.38;;;;;;;10.78;66.93;98996.53;5128146;28;20548;-26
2024/01/04 08:35:21;;;;;;;29.48;19.02;;;;;;;10.89;67.24;98990.47;5128347;28;20058;-27
2024/01/04 08:37:47;;;;;;;34.75;21.05;;;;;;;11.33;66.43;98999.09;5128593;28;20023;-27
2024/01/04 08:40:13;;;;;;;36.00;19.98;;;;;;;11.72;65.15;98996.88;5128310;27;20087;-28
2024/01/04 08:42:39;;;;;;;25.67;15.90;;;;;;;11.58;65.61;98992.00;5128473;27;20026;-27
2024/01/04 08:45:06;;;;;;;21.35;13.48;;;;;;;11.86;64.73;98978.00;5128381;27;20019;-27
2024/01/04 08:47:31;;;;;;;17.83;11.82;;;;;;;11.85;64.09;98966.53;5128394;27;20168;-28
2024/01/04 08:50:00;;;;;;;18.63;11.18;;;;;;;11.86;62.67;98968.19;5128455;27;20091;-28
2024/01/04 08:52:30;;;;;;;17.45;11.73;;;;;;;12.02;62.84;98966.69;5128212;27;20094;-27
2024/01/04 08:54:55;;;;;;;18.75;11.98;;;;;;;12.41;60.75;98951.00;5127886;27;20023;-27
2024/01/04 08:57:21;;;;;;;23.48;14.27;;;;;;;12.23;61.38;98941.28;5127751;27;20494;-28
2024/01/04 08:59:46;;;;;;;31.40;20.05;;;;;;;11.93;62.14;98944.09;5127854;27;20026;-27
2024/01/04 09:02:12;;;;;;;35.97;22.00;;;;;;;12.03;63.48;98946.19;5128436;27;20031;-27
2024/01/04 09:04:37;;;;;;;37.28;23.05;;;;;;;12.93;59.84;98930.66;5128109;27;20387;-27
2024/01/04 09:07:03;;;;;;;37.83;21.55;;;;;;;13.52;57.95;98925.06;5127844;27;20486;-27
2024/01/04 09:09:28;;;;;;;36.38;22.67;;;;;;;13.97;57.79;98930.31;5127823;27;20114;-28
2024/01/04 09:11:53;;;;;;;38.92;24.23;;;;;;;14.44;55.17;98924.53;5114343;27;20035;-29
2024/01/04 09:14:19;;;;;;;38.35;24.50;;;;;;;14.59;54.98;98931.16;5114377;28;20103;-27
2024/01/04 09:16:44;;;;;;;39.13;24.58;;;;;;;13.45;58.05;98935.91;5113801;28;20430;-27
2024/01/04 09:19:17;;;;;;;37.97;23.77;;;;;;;13.10;59.73;98948.38;5113831;28;20032;-27
2024/01/04 09:21:43;;;;;;;37.60;22.65;;;;;;;13.82;58.39;98940.78;5113999;28;20020;-27
2024/01/04 09:24:11;;;;;;;39.60;23.45;;;;;;;13.47;58.32;98971.22;5113753;28;20028;-30
2024/01/04 09:26:40;;;;;;;30.70;19.33;;;;;;;12.91;60.01;98968.31;5113724;27;20031;-27
2024/01/04 09:29:06;;;;;;;24.52;16.77;;;;;;;13.37;59.10;98955.84;5114027;28;20073;-27
2024/01/04 09:31:32;;;;;;;24.85;16.13;;;;;;;13.86;58.28;98944.59;5113525;28;20019;-28
2024/01/04 09:33:57;;;;;;;21.90;14.65;;;;;;;13.59;58.31;98941.75;5113705;28;20165;-26
2024/01/04 09:36:23;;;;;;;23.42;14.68;;;;;;;13.77;58.03;98948.72;5113418;28;20119;-27
2024/01/04 09:38:49;;;;;;;31.83;16.40;;;;;;;13.71;57.67;98937.16;5113900;28;20044;-27
2024/01/04 09:41:25;;;;;;;27.20;15.45;;;;;;;14.07;57.35;98927.00;5113962;28;20098;-27
2024/01/04 09:43:54;;;;;;;29.60;18.60;;;;;;;14.10;57.29;98921.13;5113961;27;20026;-27
2024/01/04 09:46:21;;;;;;;34.95;18.13;;;;;;;14.52;56.62;98917.13;5113872;28;20088;-28
2024/01/04 09:48:56;;;;;;;32.00;20.25;;;;;;;14.63;56.33;98917.03;5113424;28;20016;-28
2024/01/04 09:51:22;;;;;;;37.22;21.48;;;;;;;14.97;55.15;98913.38;5113383;28;20023;-27
2024/01/04 09:53:53;;;;;;;35.25;21.05;;;;;;;15.02;55.46;98892.81;5113217;28;20486;-27
2024/01/04 09:56:19;;;;;;;35.20;20.85;;;;;;;15.26;55.16;98889.78;5113627;28;20047;-29
2024/01/04 09:58:44;;;;;;;36.00;22.17;;;;;;;15.57;54.51;98887.34;5112829;28;20051;-27
2024/01/04 10:01:11;;;;;;;34.53;21.60;;;;;;;15.54;54.84;98886.00;5112811;28;20222;-27
2024/01/04 10:03:41;;;;;;;29.17;19.05;;;;;;;15.22;55.36;98884.13;5112905;28;20048;-27
2024/01/04 10:06:08;;;;;;;31.10;17.75;;;;;;;15.05;55.72;98870.03;5113329;28;20060;-27
2024/01/04 10:08:37;;;;;;;28.35;17.45;;;;;;;15.24;56.00;98867.81;5113008;28;20074;-27
2024/01/04 10:11:12;;;;;;;28.42;17.70;;;;;;;15.45;56.30;98871.47;5112723;28;20474;-27
2024/01/04 10:13:38;;;;;;;23.98;16.77;;;;;;;15.19;56.03;98865.91;5112837;28;20019;-27
2024/01/04 10:16:05;;;;;;;23.95;16.65;;;;;;;15.47;55.42;98860.47;5112575;27;20028;-28
2024/01/04 10:18:34;;;;;;;26.08;17.05;;;;;;;15.58;55.45;98859.50;5113003;28;20027;-28
2024/01/04 10:21:04;;;;;;;25.13;16.10;;;;;;;15.28;55.54;98860.88;5112476;28;20103;-28
2024/01/04 10:23:33;;;;;;;25.88;15.73;;;;;;;15.31;54.49;98848.84;5111739;28;20035;-28
2024/01/04 10:26:09;;;;;;;22.42;15.38;;;;;;;15.60;54.19;98842.06;5112805;28;20019;-27
2024/01/04 10:28:39;;;;;;;21.95;14.25;;;;;;;15.71;54.12;98823.38;5112627;28;20019;-28
2024/01/04 10:31:07;;;;;;;25.42;14.02;;;;;;;15.70;53.58;98821.75;5112460;28;20019;-28
2024/01/04 10:33:33;;;;;;;27.30;12.97;;;;;;;15.77;52.55;98811.63;5112842;28;20024;-27
2024/01/04 10:36:09;;;;;;;18.83;12.40;;;;;;;15.77;51.42;98808.94;5112972;28;20039;-28
2024/01/04 10:38:36;;;;;;;19.85;13.00;;;;;;;15.88;51.68;98797.22;5112715;28;20077;-29
2024/01/04 10:41:02;;;;;;;21.33;12.57;;;;;;;15.96;51.34;98801.28;5110780;28;20027;-28
2024/01/04 10:43:30;;;;;;;20.48;12.38;;;;;;;16.09;51.09;98787.38;5112580;28;20027;-27
2024/01/04 10:46:08;;;;;;;21.38;12.38;;;;;;;16.24;50.87;98781.25;5112291;28;20027;-27
2024/01/04 10:48:38;;;;;;;17.67;12.85;;;;;;;16.33;51.01;98771.59;5112363;28;20027;-27
2024/01/04 10:51:05;;;;;;;16.83;12.45;;;;;;;16.29;49.84;98749.03;5112085;28;20045;-28
2024/01/04 10:53:34;;;;;;;17.27;11.30;;;;;;;16.52;49.51;98763.03;5111871;28;20119;-27
2024/01/04 10:56:03;;;;;;;17.58;11.18;;;;;;;16.62;48.85;98768.44;5112265;28;20027;-28
2024/01/04 10:58:32;;;;;;;18.77;11.73;;;;;;;16.54;48.85;98769.75;5111974;28;20034;-28
2024/01/04 11:00:58;;;;;;;17.30;11.20;;;;;;;16.63;48.32;98770.03;5112023;28;20527;-27
2024/01/04 11:03:27;;;;;;;18.25;9.43;;;;;;;16.27;48.40;98761.91;5112053;28;20406;-27
2024/01/04 11:05:54;;;;;;;13.38;9.13;;;;;;;16.38;48.59;98763.56;5112420;28;20028;-27
2024/01/04 11:08:21;;;;;;;14.63;9.45;;;;;;;16.54;48.08;98764.38;5111966;28;20406;-28
2024/01/04 11:10:49;;;;;;;17.42;9.95;;;;;;;16.61;49.13;98769.50;5111677;28;20201;-27
2024/01/04 11:13:16;;;;;;;18.17;9.52;;;;;;;16.77;48.11;98765.78;5111823;28;20031;-27
2024/01/04 11:15:41;;;;;;;19.42;10.18;;;;;;;16.71;48.00;98748.03;5111663;28;20038;-28
2024/01/04 11:18:28;;;;;;;17.67;10.60;;;;;;;16.73;48.10;98729.75;5111633;28;20032;-27
2024/01/04 11:21:03;;;;;;;23.73;10.35;;;;;;;16.90;47.51;98745.63;5111500;28;20498;-28
2024/01/04 11:23:48;;;;;;;18.65;10.73;;;;;;;16.77;47.53;98735.41;5111352;28;20336;-28
2024/01/04 11:26:27;;;;;;;16.92;10.85;;;;;;;16.15;47.90;98742.56;5111237;28;20491;-29
2024/01/04 11:28:54;;;;;;;16.52;10.32;;;;;;;16.52;47.82;98749.63;5111355;28;20495;-27
2024/01/04 11:31:23;;;;;;;15.95;9.32;;;;;;;16.65;48.08;98722.25;5111341;28;20024;-29
2024/01/04 11:33:49;;;;;;;14.40;8.93;;;;;;;16.73;47.29;98735.13;5111092;28;20084;-29
2024/01/04 11:36:23;;;;;;;12.60;9.00;;;;;;;16.49;48.02;98734.06;5111496;28;20024;-27
2024/01/04 11:38:49;;;;;;;14.63;9.30;;;;;;;16.99;46.91;98738.66;5111490;28;20102;-27
2024/01/04 11:41:15;;;;;;;14.40;8.98;;;;;;;17.33;46.04;98726.53;5111234;28;20077;-28
2024/01/04 11:43:44;;;;;;;13.70;9.40;;;;;;;17.04;45.83;98713.66;5111279;28;20110;-27